sensor_id;sensor_type;location;lat;lon;timestamp;P1;durP1;ratioP1;P2;durP2;ratioP2
49051;SDS011;34866;48.670;18.260;2022-07-09T00:01:32;5.18;;;2.22;;
49051;SDS011;34866;48.670;18.260;2022-07-09T00:03:57;4.20;;;1.77;;
49051;SDS011;34866;48.670;18.260;2022-07-09T00:06:23;6.88;;;2.90;;
49051;SDS011;34866;48.670;18.260;2022-07-09T00:08:49;14.35;;;4.00;;
49051;SDS011;34866;48.670;18.260;2022-07-09T00:11:14;7.35;;;2.53;;
49051;SDS011;34866;48.670;18.260;2022-07-09T00:13:40;8.30;;;2.85;;
49051;SDS011;34866;48.670;18.260;2022-07-09T00:16:06;7.70;;;2.20;;
49051;SDS011;34866;48.670;18.260;2022-07-09T00:18:32;5.15;;;2.47;;
49051;SDS011;34866;48.670;18.260;2022-07-09T00:20:57;8.82;;;2.78;;
49051;SDS011;34866;48.670;18.260;2022-07-09T00:23:26;6.10;;;2.25;;
49051;SDS011;34866;48.670;18.260;2022-07-09T00:25:52;6.97;;;2.97;;
49051;SDS011;34866;48.670;18.260;2022-07-09T00:28:18;4.60;;;2.42;;
49051;SDS011;34866;48.670;18.260;2022-07-09T00:30:44;5.40;;;2.63;;
49051;SDS011;34866;48.670;18.260;2022-07-09T00:33:13;8.70;;;3.30;;
49051;SDS011;34866;48.670;18.260;2022-07-09T00:35:42;8.27;;;2.47;;
49051;SDS011;34866;48.670;18.260;2022-07-09T00:38:09;7.75;;;3.10;;
49051;SDS011;34866;48.670;18.260;2022-07-09T00:40:34;7.82;;;2.78;;
49051;SDS011;34866;48.670;18.260;2022-07-09T00:43:00;7.53;;;3.00;;
49051;SDS011;34866;48.670;18.260;2022-07-09T00:45:27;10.93;;;2.55;;
49051;SDS011;34866;48.670;18.260;2022-07-09T00:47:53;5.15;;;2.15;;
49051;SDS011;34866;48.670;18.260;2022-07-09T00:50:19;6.35;;;2.40;;
49051;SDS011;34866;48.670;18.260;2022-07-09T00:52:45;5.90;;;2.50;;
49051;SDS011;34866;48.670;18.260;2022-07-09T00:55:15;7.47;;;2.80;;
49051;SDS011;34866;48.670;18.260;2022-07-09T00:57:41;8.95;;;2.78;;
49051;SDS011;34866;48.670;18.260;2022-07-09T01:00:07;6.43;;;3.08;;
49051;SDS011;34866;48.670;18.260;2022-07-09T01:02:35;5.20;;;2.58;;
49051;SDS011;34866;48.670;18.260;2022-07-09T01:05:01;6.97;;;2.60;;
49051;SDS011;34866;48.670;18.260;2022-07-09T01:07:27;7.22;;;2.22;;
49051;SDS011;34866;48.670;18.260;2022-07-09T01:09:53;5.88;;;2.60;;
49051;SDS011;34866;48.670;18.260;2022-07-09T01:12:25;6.20;;;2.67;;
49051;SDS011;34866;48.670;18.260;2022-07-09T01:14:54;5.50;;;2.25;;
49051;SDS011;34866;48.670;18.260;2022-07-09T01:17:19;11.35;;;3.83;;
49051;SDS011;34866;48.670;18.260;2022-07-09T01:19:48;6.28;;;2.63;;
49051;SDS011;34866;48.670;18.260;2022-07-09T01:22:13;8.38;;;2.40;;
49051;SDS011;34866;48.670;18.260;2022-07-09T01:24:39;6.00;;;2.58;;
49051;SDS011;34866;48.670;18.260;2022-07-09T01:27:05;5.53;;;2.58;;
49051;SDS011;34866;48.670;18.260;2022-07-09T01:29:38;9.98;;;2.72;;
49051;SDS011;34866;48.670;18.260;2022-07-09T01:32:13;4.63;;;2.42;;
49051;SDS011;34866;48.670;18.260;2022-07-09T01:34:40;7.03;;;2.15;;
49051;SDS011;34866;48.670;18.260;2022-07-09T01:37:06;6.15;;;2.40;;
49051;SDS011;34866;48.670;18.260;2022-07-09T01:39:31;5.38;;;3.08;;
49051;SDS011;34866;48.670;18.260;2022-07-09T01:41:57;15.18;;;3.13;;
49051;SDS011;34866;48.670;18.260;2022-07-09T01:44:23;4.38;;;2.53;;
49051;SDS011;34866;48.670;18.260;2022-07-09T01:46:49;8.32;;;3.17;;
49051;SDS011;34866;48.670;18.260;2022-07-09T01:49:21;7.65;;;3.67;;
49051;SDS011;34866;48.670;18.260;2022-07-09T01:51:46;6.88;;;3.20;;
49051;SDS011;34866;48.670;18.260;2022-07-09T01:54:12;8.68;;;3.28;;
49051;SDS011;34866;48.670;18.260;2022-07-09T01:56:39;7.45;;;3.00;;
49051;SDS011;34866;48.670;18.260;2022-07-09T01:59:05;6.45;;;2.70;;
49051;SDS011;34866;48.670;18.260;2022-07-09T02:01:30;4.57;;;2.13;;
49051;SDS011;34866;48.670;18.260;2022-07-09T02:04:14;5.90;;;2.45;;
49051;SDS011;34866;48.670;18.260;2022-07-09T02:06:43;9.35;;;2.30;;
49051;SDS011;34866;48.670;18.260;2022-07-09T02:09:09;5.25;;;2.10;;
49051;SDS011;34866;48.670;18.260;2022-07-09T02:11:36;4.10;;;2.35;;
49051;SDS011;34866;48.670;18.260;2022-07-09T02:14:02;5.78;;;2.22;;
49051;SDS011;34866;48.670;18.260;2022-07-09T02:16:28;5.57;;;2.03;;
49051;SDS011;34866;48.670;18.260;2022-07-09T02:18:53;8.90;;;2.33;;
49051;SDS011;34866;48.670;18.260;2022-07-09T02:21:19;10.82;;;2.80;;
49051;SDS011;34866;48.670;18.260;2022-07-09T02:24:05;8.98;;;3.05;;
49051;SDS011;34866;48.670;18.260;2022-07-09T02:26:30;6.97;;;2.30;;
49051;SDS011;34866;48.670;18.260;2022-07-09T02:28:56;7.45;;;2.92;;
49051;SDS011;34866;48.670;18.260;2022-07-09T02:31:26;6.13;;;2.60;;
49051;SDS011;34866;48.670;18.260;2022-07-09T02:34:14;5.20;;;2.40;;
49051;SDS011;34866;48.670;18.260;2022-07-09T02:36:40;10.73;;;2.58;;
49051;SDS011;34866;48.670;18.260;2022-07-09T02:39:18;4.28;;;2.50;;
49051;SDS011;34866;48.670;18.260;2022-07-09T02:41:47;5.53;;;2.67;;
49051;SDS011;34866;48.670;18.260;2022-07-09T02:44:15;7.28;;;2.53;;
49051;SDS011;34866;48.670;18.260;2022-07-09T02:46:41;7.32;;;2.08;;
49051;SDS011;34866;48.670;18.260;2022-07-09T02:49:08;4.10;;;2.25;;
49051;SDS011;34866;48.670;18.260;2022-07-09T02:51:35;9.45;;;2.40;;
49051;SDS011;34866;48.670;18.260;2022-07-09T02:56:48;5.97;;;2.42;;
49051;SDS011;34866;48.670;18.260;2022-07-09T02:59:14;7.07;;;2.42;;
49051;SDS011;34866;48.670;18.260;2022-07-09T03:01:39;4.95;;;2.25;;
49051;SDS011;34866;48.670;18.260;2022-07-09T03:04:06;7.88;;;2.50;;
49051;SDS011;34866;48.670;18.260;2022-07-09T03:06:36;5.63;;;2.67;;
49051;SDS011;34866;48.670;18.260;2022-07-09T03:09:05;4.88;;;2.08;;
49051;SDS011;34866;48.670;18.260;2022-07-09T03:11:31;10.00;;;2.47;;
49051;SDS011;34866;48.670;18.260;2022-07-09T03:14:00;7.30;;;2.90;;
49051;SDS011;34866;48.670;18.260;2022-07-09T03:16:28;7.00;;;2.47;;
49051;SDS011;34866;48.670;18.260;2022-07-09T03:18:54;12.38;;;2.78;;
49051;SDS011;34866;48.670;18.260;2022-07-09T03:21:20;9.43;;;3.47;;
49051;SDS011;34866;48.670;18.260;2022-07-09T03:23:45;5.60;;;2.58;;
49051;SDS011;34866;48.670;18.260;2022-07-09T03:26:14;5.22;;;2.30;;
49051;SDS011;34866;48.670;18.260;2022-07-09T03:28:41;7.93;;;2.35;;
49051;SDS011;34866;48.670;18.260;2022-07-09T03:31:16;7.90;;;2.95;;
49051;SDS011;34866;48.670;18.260;2022-07-09T03:33:41;8.35;;;2.83;;
49051;SDS011;34866;48.670;18.260;2022-07-09T03:36:07;10.48;;;2.83;;
49051;SDS011;34866;48.670;18.260;2022-07-09T03:38:34;7.10;;;3.33;;
49051;SDS011;34866;48.670;18.260;2022-07-09T03:41:00;9.35;;;3.10;;
49051;SDS011;34866;48.670;18.260;2022-07-09T03:43:27;9.07;;;3.45;;
49051;SDS011;34866;48.670;18.260;2022-07-09T03:45:52;5.05;;;3.10;;
49051;SDS011;34866;48.670;18.260;2022-07-09T03:48:19;9.38;;;3.45;;
49051;SDS011;34866;48.670;18.260;2022-07-09T03:50:45;5.53;;;2.20;;
49051;SDS011;34866;48.670;18.260;2022-07-09T03:53:11;6.47;;;3.00;;
49051;SDS011;34866;48.670;18.260;2022-07-09T03:55:40;8.00;;;2.65;;
49051;SDS011;34866;48.670;18.260;2022-07-09T03:58:11;9.07;;;2.92;;
49051;SDS011;34866;48.670;18.260;2022-07-09T04:00:37;8.27;;;3.35;;
49051;SDS011;34866;48.670;18.260;2022-07-09T04:03:03;6.45;;;2.38;;
49051;SDS011;34866;48.670;18.260;2022-07-09T04:05:28;5.03;;;2.30;;
49051;SDS011;34866;48.670;18.260;2022-07-09T04:07:54;8.65;;;2.20;;
49051;SDS011;34866;48.670;18.260;2022-07-09T04:10:20;9.45;;;3.22;;
49051;SDS011;34866;48.670;18.260;2022-07-09T04:12:51;4.57;;;2.17;;
49051;SDS011;34866;48.670;18.260;2022-07-09T04:15:17;7.78;;;2.38;;
49051;SDS011;34866;48.670;18.260;2022-07-09T04:17:43;8.38;;;2.40;;
49051;SDS011;34866;48.670;18.260;2022-07-09T04:20:08;4.80;;;1.98;;
49051;SDS011;34866;48.670;18.260;2022-07-09T04:22:40;7.85;;;2.45;;
49051;SDS011;34866;48.670;18.260;2022-07-09T04:25:06;4.80;;;2.30;;
49051;SDS011;34866;48.670;18.260;2022-07-09T04:27:32;4.85;;;2.20;;
49051;SDS011;34866;48.670;18.260;2022-07-09T04:29:59;4.93;;;2.17;;
49051;SDS011;34866;48.670;18.260;2022-07-09T04:32:27;12.10;;;2.20;;
49051;SDS011;34866;48.670;18.260;2022-07-09T04:34:54;7.03;;;2.22;;
49051;SDS011;34866;48.670;18.260;2022-07-09T04:37:20;8.70;;;2.20;;
49051;SDS011;34866;48.670;18.260;2022-07-09T04:39:46;7.18;;;1.92;;
49051;SDS011;34866;48.670;18.260;2022-07-09T04:42:17;8.13;;;2.20;;
49051;SDS011;34866;48.670;18.260;2022-07-09T04:44:50;8.93;;;2.28;;
49051;SDS011;34866;48.670;18.260;2022-07-09T04:47:16;5.18;;;1.98;;
49051;SDS011;34866;48.670;18.260;2022-07-09T04:49:48;5.75;;;2.45;;
49051;SDS011;34866;48.670;18.260;2022-07-09T04:52:16;5.95;;;2.30;;
49051;SDS011;34866;48.670;18.260;2022-07-09T04:54:45;6.25;;;1.88;;
49051;SDS011;34866;48.670;18.260;2022-07-09T04:57:17;6.72;;;2.00;;
49051;SDS011;34866;48.670;18.260;2022-07-09T04:59:43;5.70;;;2.20;;
49051;SDS011;34866;48.670;18.260;2022-07-09T05:02:09;5.55;;;1.90;;
49051;SDS011;34866;48.670;18.260;2022-07-09T05:04:37;5.70;;;2.38;;
49051;SDS011;34866;48.670;18.260;2022-07-09T05:07:03;6.63;;;2.35;;
49051;SDS011;34866;48.670;18.260;2022-07-09T05:09:30;10.32;;;2.17;;
49051;SDS011;34866;48.670;18.260;2022-07-09T05:11:56;6.60;;;2.08;;
49051;SDS011;34866;48.670;18.260;2022-07-09T05:14:22;8.95;;;2.03;;
49051;SDS011;34866;48.670;18.260;2022-07-09T05:17:11;7.93;;;2.10;;
49051;SDS011;34866;48.670;18.260;2022-07-09T05:19:43;11.43;;;2.42;;
49051;SDS011;34866;48.670;18.260;2022-07-09T05:22:09;7.25;;;2.85;;
49051;SDS011;34866;48.670;18.260;2022-07-09T05:24:36;12.55;;;3.95;;
49051;SDS011;34866;48.670;18.260;2022-07-09T05:27:03;6.03;;;2.08;;
49051;SDS011;34866;48.670;18.260;2022-07-09T05:29:29;5.70;;;2.25;;
49051;SDS011;34866;48.670;18.260;2022-07-09T05:32:03;9.98;;;2.85;;
49051;SDS011;34866;48.670;18.260;2022-07-09T05:34:49;10.57;;;2.70;;
49051;SDS011;34866;48.670;18.260;2022-07-09T05:37:19;7.00;;;2.40;;
49051;SDS011;34866;48.670;18.260;2022-07-09T05:39:46;7.15;;;2.15;;
49051;SDS011;34866;48.670;18.260;2022-07-09T05:42:14;5.95;;;2.88;;
49051;SDS011;34866;48.670;18.260;2022-07-09T05:45:01;6.93;;;2.50;;
49051;SDS011;34866;48.670;18.260;2022-07-09T05:47:29;22.83;;;2.67;;
49051;SDS011;34866;48.670;18.260;2022-07-09T05:49:57;4.55;;;2.20;;
49051;SDS011;34866;48.670;18.260;2022-07-09T05:52:27;7.00;;;2.42;;
49051;SDS011;34866;48.670;18.260;2022-07-09T05:54:58;7.45;;;2.58;;
49051;SDS011;34866;48.670;18.260;2022-07-09T05:57:24;7.18;;;2.22;;
49051;SDS011;34866;48.670;18.260;2022-07-09T06:02:52;4.93;;;2.05;;
49051;SDS011;34866;48.670;18.260;2022-07-09T06:05:19;8.27;;;2.60;;
49051;SDS011;34866;48.670;18.260;2022-07-09T06:07:51;6.65;;;2.50;;
49051;SDS011;34866;48.670;18.260;2022-07-09T06:10:19;5.50;;;2.28;;
49051;SDS011;34866;48.670;18.260;2022-07-09T06:15:41;6.95;;;2.58;;
49051;SDS011;34866;48.670;18.260;2022-07-09T06:18:08;10.95;;;1.95;;
49051;SDS011;34866;48.670;18.260;2022-07-09T06:20:38;4.57;;;2.10;;
49051;SDS011;34866;48.670;18.260;2022-07-09T06:23:04;6.22;;;2.40;;
49051;SDS011;34866;48.670;18.260;2022-07-09T06:25:33;6.47;;;2.10;;
49051;SDS011;34866;48.670;18.260;2022-07-09T06:28:19;7.38;;;2.08;;
49051;SDS011;34866;48.670;18.260;2022-07-09T06:30:50;6.10;;;2.30;;
49051;SDS011;34866;48.670;18.260;2022-07-09T06:33:16;10.35;;;2.70;;
49051;SDS011;34866;48.670;18.260;2022-07-09T06:35:42;8.57;;;2.05;;
49051;SDS011;34866;48.670;18.260;2022-07-09T06:38:08;5.95;;;1.70;;
49051;SDS011;34866;48.670;18.260;2022-07-09T06:40:40;7.20;;;1.80;;
49051;SDS011;34866;48.670;18.260;2022-07-09T06:43:05;4.65;;;1.50;;
49051;SDS011;34866;48.670;18.260;2022-07-09T06:45:39;4.82;;;1.60;;
49051;SDS011;34866;48.670;18.260;2022-07-09T06:48:08;4.60;;;2.15;;
49051;SDS011;34866;48.670;18.260;2022-07-09T06:50:35;6.80;;;2.00;;
49051;SDS011;34866;48.670;18.260;2022-07-09T06:53:03;4.22;;;1.90;;
49051;SDS011;34866;48.670;18.260;2022-07-09T06:55:35;7.25;;;1.50;;
49051;SDS011;34866;48.670;18.260;2022-07-09T06:58:01;5.43;;;1.73;;
49051;SDS011;34866;48.670;18.260;2022-07-09T07:00:29;5.95;;;1.83;;
49051;SDS011;34866;48.670;18.260;2022-07-09T07:02:56;3.92;;;1.50;;
49051;SDS011;34866;48.670;18.260;2022-07-09T07:05:27;3.35;;;1.42;;
49051;SDS011;34866;48.670;18.260;2022-07-09T07:07:53;7.28;;;1.75;;
49051;SDS011;34866;48.670;18.260;2022-07-09T07:10:19;8.88;;;2.00;;
49051;SDS011;34866;48.670;18.260;2022-07-09T07:13:05;4.28;;;1.85;;
49051;SDS011;34866;48.670;18.260;2022-07-09T07:15:34;5.68;;;2.13;;
49051;SDS011;34866;48.670;18.260;2022-07-09T07:18:03;5.60;;;1.70;;
49051;SDS011;34866;48.670;18.260;2022-07-09T07:20:35;6.85;;;1.70;;
49051;SDS011;34866;48.670;18.260;2022-07-09T07:23:04;3.70;;;1.58;;
49051;SDS011;34866;48.670;18.260;2022-07-09T07:25:30;7.53;;;1.80;;
49051;SDS011;34866;48.670;18.260;2022-07-09T07:27:55;4.15;;;1.80;;
49051;SDS011;34866;48.670;18.260;2022-07-09T07:30:21;4.85;;;2.05;;
49051;SDS011;34866;48.670;18.260;2022-07-09T07:32:49;8.88;;;2.30;;
49051;SDS011;34866;48.670;18.260;2022-07-09T07:35:17;8.23;;;1.60;;
49051;SDS011;34866;48.670;18.260;2022-07-09T07:37:42;8.07;;;1.92;;
49051;SDS011;34866;48.670;18.260;2022-07-09T07:40:08;4.55;;;1.83;;
49051;SDS011;34866;48.670;18.260;2022-07-09T07:42:36;10.35;;;1.80;;
49051;SDS011;34866;48.670;18.260;2022-07-09T07:45:05;3.22;;;1.35;;
49051;SDS011;34866;48.670;18.260;2022-07-09T07:47:31;6.82;;;1.75;;
49051;SDS011;34866;48.670;18.260;2022-07-09T07:49:59;3.63;;;1.58;;
49051;SDS011;34866;48.670;18.260;2022-07-09T07:52:26;5.53;;;1.75;;
49051;SDS011;34866;48.670;18.260;2022-07-09T07:54:55;4.20;;;1.85;;
49051;SDS011;34866;48.670;18.260;2022-07-09T07:57:21;4.30;;;1.67;;
49051;SDS011;34866;48.670;18.260;2022-07-09T07:59:47;4.70;;;1.50;;
49051;SDS011;34866;48.670;18.260;2022-07-09T08:02:13;4.55;;;1.60;;
49051;SDS011;34866;48.670;18.260;2022-07-09T08:04:44;9.75;;;1.55;;
49051;SDS011;34866;48.670;18.260;2022-07-09T08:07:10;3.72;;;1.33;;
49051;SDS011;34866;48.670;18.260;2022-07-09T08:09:37;5.88;;;1.23;;
49051;SDS011;34866;48.670;18.260;2022-07-09T08:12:06;2.38;;;1.30;;
49051;SDS011;34866;48.670;18.260;2022-07-09T08:14:53;5.03;;;1.60;;
49051;SDS011;34866;48.670;18.260;2022-07-09T08:17:21;4.78;;;1.25;;
49051;SDS011;34866;48.670;18.260;2022-07-09T08:19:47;4.70;;;1.40;;
49051;SDS011;34866;48.670;18.260;2022-07-09T08:24:59;3.77;;;1.10;;
49051;SDS011;34866;48.670;18.260;2022-07-09T08:27:28;6.85;;;1.67;;
49051;SDS011;34866;48.670;18.260;2022-07-09T08:29:53;4.93;;;1.40;;
49051;SDS011;34866;48.670;18.260;2022-07-09T08:32:25;6.97;;;1.30;;
49051;SDS011;34866;48.670;18.260;2022-07-09T08:34:51;4.38;;;1.50;;
49051;SDS011;34866;48.670;18.260;2022-07-09T08:37:25;3.65;;;0.90;;
49051;SDS011;34866;48.670;18.260;2022-07-09T08:39:57;4.43;;;0.95;;
49051;SDS011;34866;48.670;18.260;2022-07-09T08:42:22;2.67;;;1.10;;
49051;SDS011;34866;48.670;18.260;2022-07-09T08:44:54;3.83;;;1.20;;
49051;SDS011;34866;48.670;18.260;2022-07-09T08:47:23;3.30;;;1.25;;
49051;SDS011;34866;48.670;18.260;2022-07-09T08:50:14;5.50;;;1.50;;
49051;SDS011;34866;48.670;18.260;2022-07-09T08:52:56;3.35;;;0.90;;
49051;SDS011;34866;48.670;18.260;2022-07-09T08:55:27;3.47;;;0.98;;
49051;SDS011;34866;48.670;18.260;2022-07-09T08:57:58;3.63;;;1.05;;
49051;SDS011;34866;48.670;18.260;2022-07-09T09:00:40;5.10;;;1.17;;
49051;SDS011;34866;48.670;18.260;2022-07-09T09:03:12;3.22;;;1.15;;
49051;SDS011;34866;48.670;18.260;2022-07-09T09:05:39;6.50;;;0.98;;
49051;SDS011;34866;48.670;18.260;2022-07-09T09:08:18;2.75;;;0.98;;
49051;SDS011;34866;48.670;18.260;2022-07-09T09:10:47;4.20;;;1.20;;
49051;SDS011;34866;48.670;18.260;2022-07-09T09:13:17;7.28;;;1.45;;
49051;SDS011;34866;48.670;18.260;2022-07-09T09:15:50;4.05;;;1.13;;
49051;SDS011;34866;48.670;18.260;2022-07-09T09:18:35;3.13;;;0.85;;
49051;SDS011;34866;48.670;18.260;2022-07-09T09:21:04;2.28;;;1.00;;
49051;SDS011;34866;48.670;18.260;2022-07-09T09:23:56;3.63;;;0.90;;
49051;SDS011;34866;48.670;18.260;2022-07-09T09:29:29;2.45;;;1.00;;
49051;SDS011;34866;48.670;18.260;2022-07-09T09:32:18;2.55;;;1.00;;
49051;SDS011;34866;48.670;18.260;2022-07-09T09:34:51;3.10;;;0.90;;
49051;SDS011;34866;48.670;18.260;2022-07-09T09:38:07;4.07;;;1.40;;
49051;SDS011;34866;48.670;18.260;2022-07-09T09:40:46;1.80;;;0.90;;
49051;SDS011;34866;48.670;18.260;2022-07-09T09:43:47;5.93;;;2.10;;
49051;SDS011;34866;48.670;18.260;2022-07-09T09:46:38;3.22;;;0.90;;
49051;SDS011;34866;48.670;18.260;2022-07-09T09:57:57;4.25;;;1.00;;
49051;SDS011;34866;48.670;18.260;2022-07-09T10:00:31;5.32;;;0.80;;
49051;SDS011;34866;48.670;18.260;2022-07-09T10:03:41;2.67;;;0.73;;
49051;SDS011;34866;48.670;18.260;2022-07-09T10:06:51;0.88;;;0.50;;
49051;SDS011;34866;48.670;18.260;2022-07-09T10:10:18;1.55;;;0.65;;
49051;SDS011;34866;48.670;18.260;2022-07-09T10:12:56;2.97;;;0.68;;
49051;SDS011;34866;48.670;18.260;2022-07-09T10:15:22;1.67;;;0.77;;
49051;SDS011;34866;48.670;18.260;2022-07-09T10:18:25;1.75;;;0.70;;
49051;SDS011;34866;48.670;18.260;2022-07-09T10:21:50;1.15;;;0.60;;
49051;SDS011;34866;48.670;18.260;2022-07-09T10:24:23;1.50;;;0.70;;
49051;SDS011;34866;48.670;18.260;2022-07-09T10:33:07;3.33;;;0.80;;
49051;SDS011;34866;48.670;18.260;2022-07-09T10:35:51;2.88;;;1.13;;
49051;SDS011;34866;48.670;18.260;2022-07-09T10:38:21;8.55;;;0.93;;
49051;SDS011;34866;48.670;18.260;2022-07-09T10:44:04;11.98;;;6.63;;
49051;SDS011;34866;48.670;18.260;2022-07-09T10:46:31;2.60;;;1.15;;
49051;SDS011;34866;48.670;18.260;2022-07-09T10:48:58;5.25;;;1.15;;
49051;SDS011;34866;48.670;18.260;2022-07-09T10:51:27;2.92;;;0.93;;
49051;SDS011;34866;48.670;18.260;2022-07-09T10:54:19;2.08;;;0.85;;
49051;SDS011;34866;48.670;18.260;2022-07-09T10:56:46;5.18;;;0.65;;
49051;SDS011;34866;48.670;18.260;2022-07-09T10:59:15;2.20;;;1.00;;
49051;SDS011;34866;48.670;18.260;2022-07-09T11:01:48;1.73;;;0.90;;
49051;SDS011;34866;48.670;18.260;2022-07-09T11:10:39;2.22;;;0.82;;
49051;SDS011;34866;48.670;18.260;2022-07-09T11:16:56;3.05;;;1.02;;
49051;SDS011;34866;48.670;18.260;2022-07-09T11:19:26;3.25;;;1.10;;
49051;SDS011;34866;48.670;18.260;2022-07-09T11:22:02;2.78;;;1.15;;
49051;SDS011;34866;48.670;18.260;2022-07-09T11:24:30;2.40;;;0.80;;
49051;SDS011;34866;48.670;18.260;2022-07-09T11:27:05;3.95;;;1.23;;
49051;SDS011;34866;48.670;18.260;2022-07-09T11:29:33;6.72;;;1.55;;
49051;SDS011;34866;48.670;18.260;2022-07-09T11:32:07;2.92;;;1.27;;
49051;SDS011;34866;48.670;18.260;2022-07-09T11:34:40;5.97;;;1.45;;
49051;SDS011;34866;48.670;18.260;2022-07-09T11:37:21;1.90;;;0.93;;
49051;SDS011;34866;48.670;18.260;2022-07-09T11:40:08;2.80;;;1.20;;
49051;SDS011;34866;48.670;18.260;2022-07-09T11:42:51;7.15;;;1.80;;
49051;SDS011;34866;48.670;18.260;2022-07-09T11:45:37;4.90;;;1.40;;
49051;SDS011;34866;48.670;18.260;2022-07-09T11:48:16;2.13;;;0.80;;
49051;SDS011;34866;48.670;18.260;2022-07-09T11:51:12;3.75;;;1.30;;
49051;SDS011;34866;48.670;18.260;2022-07-09T11:54:25;2.53;;;1.10;;
49051;SDS011;34866;48.670;18.260;2022-07-09T11:56:54;5.70;;;1.40;;
49051;SDS011;34866;48.670;18.260;2022-07-09T11:59:47;3.15;;;0.80;;
49051;SDS011;34866;48.670;18.260;2022-07-09T12:02:36;6.10;;;1.23;;
49051;SDS011;34866;48.670;18.260;2022-07-09T12:05:05;6.00;;;0.90;;
49051;SDS011;34866;48.670;18.260;2022-07-09T12:07:32;1.80;;;0.82;;
49051;SDS011;34866;48.670;18.260;2022-07-09T12:10:09;2.53;;;1.10;;
49051;SDS011;34866;48.670;18.260;2022-07-09T12:12:40;7.80;;;1.30;;
49051;SDS011;34866;48.670;18.260;2022-07-09T12:15:27;3.13;;;1.00;;
49051;SDS011;34866;48.670;18.260;2022-07-09T12:17:55;4.80;;;1.00;;
49051;SDS011;34866;48.670;18.260;2022-07-09T12:20:38;2.70;;;0.80;;
49051;SDS011;34866;48.670;18.260;2022-07-09T12:23:24;4.40;;;1.50;;
49051;SDS011;34866;48.670;18.260;2022-07-09T12:25:49;2.38;;;1.27;;
49051;SDS011;34866;48.670;18.260;2022-07-09T12:28:18;4.32;;;1.50;;
49051;SDS011;34866;48.670;18.260;2022-07-09T12:30:44;2.55;;;0.80;;
49051;SDS011;34866;48.670;18.260;2022-07-09T12:33:10;2.92;;;0.90;;
49051;SDS011;34866;48.670;18.260;2022-07-09T12:35:36;1.88;;;0.90;;
49051;SDS011;34866;48.670;18.260;2022-07-09T12:38:03;1.98;;;0.90;;
49051;SDS011;34866;48.670;18.260;2022-07-09T12:40:29;4.50;;;1.35;;
49051;SDS011;34866;48.670;18.260;2022-07-09T12:42:55;7.43;;;1.25;;
49051;SDS011;34866;48.670;18.260;2022-07-09T12:45:20;2.45;;;1.10;;
49051;SDS011;34866;48.670;18.260;2022-07-09T12:47:48;4.88;;;0.90;;
49051;SDS011;34866;48.670;18.260;2022-07-09T12:50:26;2.38;;;0.75;;
49051;SDS011;34866;48.670;18.260;2022-07-09T12:52:52;3.78;;;1.10;;
49051;SDS011;34866;48.670;18.260;2022-07-09T12:55:20;3.72;;;0.90;;
49051;SDS011;34866;48.670;18.260;2022-07-09T12:57:47;2.85;;;0.80;;
49051;SDS011;34866;48.670;18.260;2022-07-09T13:02:57;1.85;;;0.80;;
49051;SDS011;34866;48.670;18.260;2022-07-09T13:05:24;4.25;;;0.98;;
49051;SDS011;34866;48.670;18.260;2022-07-09T13:07:59;3.45;;;0.80;;
49051;SDS011;34866;48.670;18.260;2022-07-09T13:11:03;2.17;;;0.90;;
49051;SDS011;34866;48.670;18.260;2022-07-09T13:13:29;4.38;;;1.00;;
49051;SDS011;34866;48.670;18.260;2022-07-09T13:15:57;3.00;;;0.80;;
49051;SDS011;34866;48.670;18.260;2022-07-09T13:21:48;8.25;;;1.10;;
49051;SDS011;34866;48.670;18.260;2022-07-09T13:24:36;3.50;;;0.93;;
49051;SDS011;34866;48.670;18.260;2022-07-09T13:27:19;2.22;;;0.90;;
49051;SDS011;34866;48.670;18.260;2022-07-09T13:30:08;3.85;;;0.80;;
49051;SDS011;34866;48.670;18.260;2022-07-09T13:32:41;2.03;;;0.98;;
49051;SDS011;34866;48.670;18.260;2022-07-09T13:35:19;1.73;;;0.80;;
49051;SDS011;34866;48.670;18.260;2022-07-09T13:37:51;2.97;;;0.93;;
49051;SDS011;34866;48.670;18.260;2022-07-09T13:43:51;1.85;;;0.73;;
49051;SDS011;34866;48.670;18.260;2022-07-09T13:46:40;3.03;;;1.02;;
49051;SDS011;34866;48.670;18.260;2022-07-09T13:49:06;1.23;;;0.60;;
49051;SDS011;34866;48.670;18.260;2022-07-09T13:51:32;2.03;;;0.60;;
49051;SDS011;34866;48.670;18.260;2022-07-09T13:57:21;2.63;;;1.20;;
49051;SDS011;34866;48.670;18.260;2022-07-09T13:59:49;1.60;;;0.70;;
49051;SDS011;34866;48.670;18.260;2022-07-09T14:02:41;4.03;;;1.42;;
49051;SDS011;34866;48.670;18.260;2022-07-09T14:05:09;1.40;;;0.60;;
49051;SDS011;34866;48.670;18.260;2022-07-09T14:10:21;4.13;;;0.70;;
49051;SDS011;34866;48.670;18.260;2022-07-09T14:13:18;2.15;;;1.00;;
49051;SDS011;34866;48.670;18.260;2022-07-09T14:15:52;1.25;;;0.55;;
49051;SDS011;34866;48.670;18.260;2022-07-09T14:18:37;2.60;;;0.77;;
49051;SDS011;34866;48.670;18.260;2022-07-09T14:21:05;1.30;;;0.68;;
49051;SDS011;34866;48.670;18.260;2022-07-09T14:23:36;1.45;;;0.80;;
49051;SDS011;34866;48.670;18.260;2022-07-09T14:26:05;1.50;;;0.70;;
49051;SDS011;34866;48.670;18.260;2022-07-09T14:28:34;4.07;;;0.90;;
49051;SDS011;34866;48.670;18.260;2022-07-09T14:31:05;17.60;;;1.08;;
49051;SDS011;34866;48.670;18.260;2022-07-09T14:33:33;1.83;;;0.75;;
49051;SDS011;34866;48.670;18.260;2022-07-09T14:35:59;7.43;;;1.35;;
49051;SDS011;34866;48.670;18.260;2022-07-09T14:38:34;2.28;;;0.75;;
49051;SDS011;34866;48.670;18.260;2022-07-09T14:41:01;3.60;;;1.30;;
49051;SDS011;34866;48.670;18.260;2022-07-09T14:43:26;4.30;;;1.25;;
49051;SDS011;34866;48.670;18.260;2022-07-09T14:45:57;8.02;;;1.65;;
49051;SDS011;34866;48.670;18.260;2022-07-09T14:48:23;1.85;;;0.85;;
49051;SDS011;34866;48.670;18.260;2022-07-09T14:50:55;2.60;;;1.63;;
49051;SDS011;34866;48.670;18.260;2022-07-09T14:53:21;5.25;;;0.75;;
49051;SDS011;34866;48.670;18.260;2022-07-09T14:55:47;3.55;;;0.80;;
49051;SDS011;34866;48.670;18.260;2022-07-09T14:58:28;2.67;;;0.90;;
49051;SDS011;34866;48.670;18.260;2022-07-09T15:00:57;6.28;;;1.30;;
49051;SDS011;34866;48.670;18.260;2022-07-09T15:03:24;6.45;;;1.27;;
49051;SDS011;34866;48.670;18.260;2022-07-09T15:05:51;1.58;;;0.75;;
49051;SDS011;34866;48.670;18.260;2022-07-09T15:08:24;1.55;;;0.60;;
49051;SDS011;34866;48.670;18.260;2022-07-09T15:10:51;2.58;;;0.75;;
49051;SDS011;34866;48.670;18.260;2022-07-09T15:13:20;5.18;;;0.90;;
49051;SDS011;34866;48.670;18.260;2022-07-09T15:15:49;1.27;;;0.70;;
49051;SDS011;34866;48.670;18.260;2022-07-09T15:18:17;9.77;;;1.67;;
49051;SDS011;34866;48.670;18.260;2022-07-09T15:23:53;3.15;;;0.75;;
49051;SDS011;34866;48.670;18.260;2022-07-09T15:26:20;3.60;;;1.25;;
49051;SDS011;34866;48.670;18.260;2022-07-09T15:28:46;3.80;;;1.00;;
49051;SDS011;34866;48.670;18.260;2022-07-09T15:31:12;6.82;;;0.82;;
49051;SDS011;34866;48.670;18.260;2022-07-09T15:33:44;9.15;;;1.48;;
49051;SDS011;34866;48.670;18.260;2022-07-09T15:36:31;5.25;;;0.90;;
49051;SDS011;34866;48.670;18.260;2022-07-09T15:39:02;3.83;;;0.82;;
49051;SDS011;34866;48.670;18.260;2022-07-09T15:41:30;10.05;;;0.98;;
49051;SDS011;34866;48.670;18.260;2022-07-09T15:44:00;1.17;;;0.60;;
49051;SDS011;34866;48.670;18.260;2022-07-09T15:47:15;1.35;;;0.70;;
49051;SDS011;34866;48.670;18.260;2022-07-09T15:50:08;2.70;;;1.05;;
49051;SDS011;34866;48.670;18.260;2022-07-09T15:52:38;1.77;;;0.73;;
49051;SDS011;34866;48.670;18.260;2022-07-09T15:55:13;2.17;;;0.90;;
49051;SDS011;34866;48.670;18.260;2022-07-09T15:57:41;2.22;;;0.77;;
49051;SDS011;34866;48.670;18.260;2022-07-09T16:00:38;6.05;;;1.10;;